createdAt,value
2017-09-10T00:00:17.082Z,92.91
2017-09-10T00:00:45.010Z,92.53
2017-09-10T00:01:13.175Z,92.24
2017-09-10T00:01:41.230Z,92.33
2017-09-10T00:02:09.006Z,92.24
2017-09-10T00:02:37.083Z,92.43
2017-09-10T00:03:05.229Z,91.86
2017-09-10T00:03:33.244Z,91.96
2017-09-10T00:04:01.390Z,92.05
2017-09-10T00:04:29.533Z,91.38
2017-09-10T00:04:57.575Z,92.24
2017-09-10T00:05:25.635Z,91.66
2017-09-10T00:05:53.790Z,91.86
2017-09-10T00:06:21.946Z,91.66
2017-09-10T00:06:50.076Z,91.66
2017-09-10T00:07:18.269Z,91.57
2017-09-10T00:07:46.433Z,92.24
2017-09-10T00:08:14.653Z,91.38
2017-09-10T00:08:42.734Z,92.1
2017-09-10T00:09:10.622Z,92.05
2017-09-10T00:09:38.629Z,91.86
2017-09-10T00:10:06.730Z,91.76
2017-09-10T00:10:34.856Z,91.81
2017-09-10T00:11:02.939Z,91.81
2017-09-10T00:11:30.928Z,92.19
2017-09-10T00:11:59.092Z,91.62
2017-09-10T00:12:27.217Z,92
2017-09-10T00:12:55.200Z,91.42
2017-09-10T00:13:23.475Z,91.72
2017-09-10T00:13:51.558Z,91.81
2017-09-10T00:14:19.657Z,92.1
2017-09-10T00:14:47.776Z,91.91
2017-09-10T00:15:15.812Z,91.52
2017-09-10T00:15:43.953Z,91.42
2017-09-10T00:16:11.802Z,91.81
2017-09-10T00:16:39.945Z,91.62
2017-09-10T00:17:08.120Z,91.33
2017-09-10T00:17:36.215Z,91.62
2017-09-10T00:18:04.299Z,91.62
2017-09-10T00:18:32.383Z,91.62
2017-09-10T00:19:00.188Z,91.52
2017-09-10T00:19:28.125Z,91.81
2017-09-10T00:19:56.176Z,91.81
2017-09-10T00:20:24.282Z,91.05
2017-09-10T00:20:52.345Z,91.24
2017-09-10T00:21:20.516Z,91.33
2017-09-10T00:21:48.682Z,91.24
2017-09-10T00:22:16.752Z,90.95
2017-09-10T00:22:44.884Z,90.95
2017-09-10T00:23:13.084Z,90.95
2017-09-10T00:23:41.118Z,91.33
2017-09-10T00:24:09.261Z,91.05
2017-09-10T00:24:37.186Z,91.14
2017-09-10T00:25:05.149Z,91.05
2017-09-10T00:25:33.168Z,91.42
2017-09-10T00:26:01.097Z,91.33
2017-09-10T00:26:29.040Z,91.05
2017-09-10T00:26:57.059Z,91.72
2017-09-10T00:27:25.030Z,91.33
2017-09-10T00:27:53.071Z,91.42
2017-09-10T00:28:21.312Z,91.14
2017-09-10T00:28:49.361Z,91.33
2017-09-10T00:29:17.401Z,91.14
2017-09-10T00:29:45.572Z,91.62
2017-09-10T00:30:13.573Z,91.14
2017-09-10T00:30:41.493Z,91.05
2017-09-10T00:31:09.635Z,90.85
2017-09-10T00:31:37.863Z,91.05
2017-09-10T00:32:05.906Z,91.14
2017-09-10T00:32:34.082Z,90.85
2017-09-10T00:33:02.196Z,90.75
2017-09-10T00:33:30.321Z,90.66
2017-09-10T00:33:58.472Z,91.05
2017-09-10T00:34:26.632Z,90.56
2017-09-10T00:34:54.838Z,90.37
2017-09-10T00:35:22.592Z,90.56
2017-09-10T00:35:50.581Z,90.66
2017-09-10T00:36:18.639Z,90.66
2017-09-10T00:36:46.792Z,90.66
2017-09-10T00:37:14.812Z,90.56
2017-09-10T00:37:42.753Z,90.66
2017-09-10T00:38:10.862Z,90.66
2017-09-10T00:38:39.122Z,90.66
2017-09-10T00:39:07.327Z,90.66
2017-09-10T00:39:35.440Z,90.47
2017-09-10T00:40:03.531Z,90.56
2017-09-10T00:40:31.581Z,90.47
2017-09-10T00:40:59.608Z,90.56
2017-09-10T00:41:27.735Z,90.56
2017-09-10T00:41:55.671Z,90.85
2017-09-10T00:42:23.836Z,90.75
2017-09-10T00:42:52.004Z,90.75
2017-09-10T00:43:20.043Z,90.66
2017-09-10T00:43:48.303Z,90.47
2017-09-10T00:44:16.463Z,90.37
2017-09-10T00:44:44.632Z,90.28
2017-09-10T00:45:12.645Z,90.08
2017-09-10T00:45:40.740Z,90.37
2017-09-10T00:46:08.789Z,90.66
2017-09-10T00:46:36.861Z,90.52
2017-09-10T00:47:04.997Z,90.81
2017-09-10T00:47:33.141Z,90.81
2017-09-10T00:48:01.274Z,90.9
2017-09-10T00:48:29.407Z,91
2017-09-10T00:48:57.237Z,90.9
2017-09-10T00:49:25.385Z,90.81
2017-09-10T00:49:53.454Z,90.71
2017-09-10T00:50:21.356Z,90.61
2017-09-10T00:50:49.396Z,90.71
2017-09-10T00:51:17.551Z,90.71
2017-09-10T00:51:45.509Z,91.09
2017-09-10T00:52:13.695Z,91.09
2017-09-10T00:52:41.886Z,91.48
2017-09-10T00:53:10.065Z,91.48
2017-09-10T00:53:38.284Z,91.48
2017-09-10T00:54:06.310Z,91.19
2017-09-10T00:54:34.456Z,90.9
2017-09-10T00:55:02.402Z,91.19
2017-09-10T00:55:30.410Z,91.28
2017-09-10T00:55:58.599Z,91.19
2017-09-10T00:56:26.530Z,90.81
2017-09-10T00:56:54.629Z,90.71
2017-09-10T00:57:22.642Z,91.28
2017-09-10T00:57:50.781Z,91.09
2017-09-10T00:58:18.916Z,91
2017-09-10T00:58:47.111Z,91.19
2017-09-10T00:59:15.251Z,91.19
2017-09-10T00:59:43.308Z,90.81
2017-09-10T01:00:11.347Z,91.19
2017-09-10T01:00:39.526Z,91.19
2017-09-10T01:01:07.592Z,91.19
2017-09-10T01:01:35.657Z,91.28
2017-09-10T01:02:03.793Z,91.19
2017-09-10T01:02:31.839Z,91.19
2017-09-10T01:02:59.860Z,91.19
2017-09-10T01:03:27.966Z,91
2017-09-10T01:03:56.145Z,90.81
2017-09-10T01:04:24.328Z,91
2017-09-10T01:04:52.490Z,91
2017-09-10T01:05:20.467Z,91
2017-09-10T01:05:48.531Z,91
2017-09-10T01:06:16.666Z,91.38
2017-09-10T01:06:44.748Z,91.09
2017-09-10T01:07:12.699Z,91.19
2017-09-10T01:07:40.663Z,91.19
2017-09-10T01:08:08.670Z,91.19
2017-09-10T01:08:36.687Z,91.09
2017-09-10T01:09:04.805Z,91.09
2017-09-10T01:09:32.877Z,91
2017-09-10T01:10:00.966Z,90.9
2017-09-10T01:10:28.818Z,91.48
2017-09-10T01:10:56.766Z,91.28
2017-09-10T01:11:24.840Z,91.28
2017-09-10T01:11:52.981Z,91.28
2017-09-10T01:12:21.088Z,91.28
2017-09-10T01:12:49.250Z,91.09
2017-09-10T01:13:17.310Z,91.09
2017-09-10T01:13:45.575Z,91.09
2017-09-10T01:14:13.522Z,91.28
2017-09-10T01:14:41.589Z,91.28
2017-09-10T01:15:09.652Z,91.19
2017-09-10T01:15:37.722Z,91.09
2017-09-10T01:16:05.866Z,90.95
2017-09-10T01:16:34.031Z,91
2017-09-10T01:17:02.172Z,91.09
2017-09-10T01:17:30.266Z,91.77
2017-09-10T01:17:58.357Z,91.63
2017-09-10T01:18:26.385Z,91.28
2017-09-10T01:18:54.598Z,91.82
2017-09-10T01:19:22.705Z,91.43
2017-09-10T01:19:50.835Z,91.86
2017-09-10T01:20:18.907Z,91.57
2017-09-10T01:20:46.989Z,91.67
2017-09-10T01:21:15.037Z,91.63
2017-09-10T01:21:43.056Z,91.67
2017-09-10T01:22:11.217Z,91.48
2017-09-10T01:22:39.224Z,91.67
2017-09-10T01:23:07.262Z,91.96
2017-09-10T01:23:35.133Z,91.86
2017-09-10T01:24:03.401Z,91.67
2017-09-10T01:24:31.555Z,91.57
2017-09-10T01:24:59.749Z,91.38
2017-09-10T01:25:27.892Z,91.48
2017-09-10T01:25:55.855Z,91.77
2017-09-10T01:26:23.900Z,91.67
2017-09-10T01:26:52.100Z,91.77
2017-09-10T01:27:20.289Z,91.48
2017-09-10T01:27:48.317Z,91.67
2017-09-10T01:28:16.427Z,91.96
2017-09-10T01:28:44.232Z,91.96
2017-09-10T01:29:12.501Z,91.48
2017-09-10T01:29:40.544Z,92.15
2017-09-10T01:30:08.579Z,91.28
2017-09-10T01:30:36.459Z,91.67
2017-09-10T01:31:04.584Z,91.57
2017-09-10T01:31:32.519Z,91.57
2017-09-10T01:32:00.616Z,91.57
2017-09-10T01:32:28.678Z,91.57
2017-09-10T01:32:56.850Z,91.38
2017-09-10T01:33:24.884Z,91.67
2017-09-10T01:33:52.983Z,91.86
2017-09-10T01:34:20.926Z,91.67
2017-09-10T01:34:49.104Z,91.96
2017-09-10T01:35:17.126Z,91.38
2017-09-10T01:35:45.031Z,91.57
2017-09-10T01:36:13.099Z,91.57
2017-09-10T01:36:41.219Z,91.77
2017-09-10T01:37:09.243Z,91.77
2017-09-10T01:37:37.191Z,91.72
2017-09-10T01:38:05.348Z,91.77
2017-09-10T01:38:33.260Z,91.86
2017-09-10T01:39:01.444Z,91.38
2017-09-10T01:39:29.480Z,91.24
2017-09-10T01:39:57.643Z,91.24
2017-09-10T01:40:25.788Z,91.19
2017-09-10T01:40:53.712Z,91.91
2017-09-10T01:41:21.864Z,92.24
2017-09-10T01:41:49.902Z,92.01
2017-09-10T01:42:17.942Z,92.44
2017-09-10T01:42:46.109Z,91.77
2017-09-10T01:43:14.288Z,91.77
2017-09-10T01:43:42.331Z,91.43
2017-09-10T01:44:10.482Z,91.19
2017-09-10T01:44:38.622Z,91.57
2017-09-10T01:45:06.671Z,91.24
2017-09-10T01:45:34.767Z,91.67
2017-09-10T01:46:02.709Z,91.77
2017-09-10T01:46:30.946Z,92.34
2017-09-10T01:46:58.964Z,92.24
2017-09-10T01:47:27.102Z,92.34
2017-09-10T01:47:55.265Z,92.2
2017-09-10T01:48:23.422Z,92.34
2017-09-10T01:48:51.509Z,92.44
2017-09-10T01:49:19.818Z,92.63
2017-09-10T01:49:47.889Z,92.63
2017-09-10T01:50:15.925Z,91.67
2017-09-10T01:50:43.923Z,91.86
2017-09-10T01:51:11.753Z,91.86
2017-09-10T01:51:39.898Z,91.96
2017-09-10T01:52:07.951Z,91.77
2017-09-10T01:52:36.001Z,91.67
2017-09-10T01:53:04.080Z,91.86
2017-09-10T01:53:32.216Z,91.96
2017-09-10T01:54:00.255Z,91.86
2017-09-10T01:54:28.498Z,91.96
2017-09-10T01:54:56.653Z,91.86
2017-09-10T01:55:24.776Z,91.38
2017-09-10T01:55:52.890Z,91.77
2017-09-10T01:56:21.027Z,91.67
2017-09-10T01:56:49.143Z,91.77
2017-09-10T01:57:17.111Z,91.67
2017-09-10T01:57:45.244Z,91.77
2017-09-10T01:58:13.302Z,92.05
2017-09-10T01:58:41.452Z,92.05
2017-09-10T01:59:09.471Z,91.77
2017-09-10T01:59:37.715Z,91.86
2017-09-10T02:00:05.834Z,91.77
2017-09-10T02:00:34.014Z,91.67
2017-09-10T02:01:01.961Z,91.77
2017-09-10T02:01:30.146Z,91.96
2017-09-10T02:01:58.267Z,91.77
2017-09-10T02:02:26.469Z,91.38
2017-09-10T02:02:54.615Z,91.19
2017-09-10T02:03:22.764Z,91.38
2017-09-10T02:03:50.822Z,91.96
2017-09-10T02:04:19.077Z,91.86
2017-09-10T02:04:47.220Z,91.67
2017-09-10T02:05:15.374Z,91.77
2017-09-10T02:05:43.567Z,91.72
2017-09-10T02:06:11.627Z,92.39
2017-09-10T02:06:39.752Z,92.1
2017-09-10T02:07:07.895Z,92.01
2017-09-10T02:07:36.057Z,92.1
2017-09-10T02:08:04.165Z,92.2
2017-09-10T02:08:31.977Z,92.01
2017-09-10T02:09:00.110Z,92.39
2017-09-10T02:09:28.379Z,92.39
2017-09-10T02:09:56.458Z,92.39
2017-09-10T02:10:24.508Z,92.39
2017-09-10T02:10:52.422Z,92.3
2017-09-10T02:11:20.580Z,92.58
2017-09-10T02:11:48.716Z,92.97
2017-09-10T02:12:16.677Z,92.87
2017-09-10T02:12:44.655Z,92.49
2017-09-10T02:13:12.722Z,92.77
2017-09-10T02:13:40.833Z,92.77
2017-09-10T02:14:08.994Z,92.77
2017-09-10T02:14:36.930Z,93.44
2017-09-10T02:15:04.958Z,93.35
2017-09-10T02:15:33.107Z,93.26
2017-09-10T02:16:01.237Z,93.44
2017-09-10T02:16:29.306Z,92.68
2017-09-10T02:16:57.251Z,92.97
2017-09-10T02:17:25.433Z,92.77
2017-09-10T02:17:53.610Z,93.35
2017-09-10T02:18:21.649Z,93.06
2017-09-10T02:18:49.573Z,93.06
2017-09-10T02:19:17.626Z,93.26
2017-09-10T02:19:45.879Z,93.54
2017-09-10T02:20:14.027Z,93.26
2017-09-10T02:20:42.076Z,93.06
2017-09-10T02:21:10.191Z,92.97
2017-09-10T02:21:38.129Z,92.77
2017-09-10T02:22:06.094Z,92.77
2017-09-10T02:22:34.114Z,92.68
2017-09-10T02:23:02.256Z,93.16
2017-09-10T02:23:30.421Z,93.26
2017-09-10T02:23:58.487Z,92.97
2017-09-10T02:24:26.544Z,93.06
2017-09-10T02:24:54.741Z,93.16
2017-09-10T02:25:22.676Z,93.16
2017-09-10T02:25:50.799Z,93.06
2017-09-10T02:26:18.774Z,93.35
2017-09-10T02:26:46.712Z,93.26
2017-09-10T02:27:14.865Z,93.26
2017-09-10T02:27:42.900Z,93.63
2017-09-10T02:28:10.954Z,93.54
2017-09-10T02:28:39.009Z,93.54
2017-09-10T02:29:07.174Z,93.63
2017-09-10T02:29:35.336Z,93.73
2017-09-10T02:30:03.389Z,93.63
2017-09-10T02:30:31.577Z,93.73
2017-09-10T02:30:59.676Z,93.83
2017-09-10T02:31:27.692Z,93.83
2017-09-10T02:31:55.854Z,93.73
2017-09-10T02:32:23.983Z,94.12
2017-09-10T02:32:52.118Z,94.5
2017-09-10T02:33:20.107Z,93.73
2017-09-10T02:33:48.225Z,94.59
2017-09-10T02:34:16.268Z,94.5
2017-09-10T02:34:44.543Z,94.21
2017-09-10T02:35:12.708Z,94.02
2017-09-10T02:35:40.659Z,93.83
2017-09-10T02:36:08.793Z,93.93
2017-09-10T02:36:36.962Z,94.69
2017-09-10T02:37:05.116Z,94.5
2017-09-10T02:37:33.080Z,94.69
2017-09-10T02:38:01.109Z,94.5
2017-09-10T02:38:29.140Z,94.4
2017-09-10T02:38:57.298Z,94.5
2017-09-10T02:39:25.344Z,94.59
2017-09-10T02:39:53.504Z,94.69
2017-09-10T02:40:21.637Z,94.69
2017-09-10T02:40:49.762Z,94.79
2017-09-10T02:41:17.679Z,94.89
2017-09-10T02:41:45.609Z,94.69
2017-09-10T02:42:13.753Z,94.79
2017-09-10T02:42:41.592Z,94.69
2017-09-10T02:43:09.662Z,94.5
2017-09-10T02:43:37.609Z,94.4
2017-09-10T02:44:05.645Z,94.69
2017-09-10T02:44:33.683Z,94.5
2017-09-10T02:45:01.805Z,94.98
2017-09-10T02:45:29.851Z,94.69
2017-09-10T02:45:57.951Z,95.26
2017-09-10T02:46:26.026Z,94.79
2017-09-10T02:46:54.146Z,94.4
2017-09-10T02:47:22.296Z,95.26
2017-09-10T02:47:50.376Z,95.07
2017-09-10T02:48:18.246Z,95.07
2017-09-10T02:48:46.203Z,94.69
2017-09-10T02:49:14.370Z,94.89
2017-09-10T02:49:42.439Z,94.69
2017-09-10T02:50:10.580Z,95.07
2017-09-10T02:50:38.743Z,95.26
2017-09-10T02:51:06.885Z,94.59
2017-09-10T02:51:34.837Z,95.07
2017-09-10T02:52:02.954Z,95.07
2017-09-10T02:52:31.040Z,94.59
2017-09-10T02:52:59.153Z,94.5
2017-09-10T02:53:27.236Z,94.69
2017-09-10T02:53:55.388Z,94.59
2017-09-10T02:54:23.577Z,95.26
2017-09-10T02:54:51.776Z,95.07
2017-09-10T02:55:19.970Z,95.07
2017-09-10T02:55:48.002Z,94.64
2017-09-10T02:56:16.119Z,94.74
2017-09-10T02:56:44.091Z,95.46
2017-09-10T02:57:12.284Z,95.12
2017-09-10T02:57:40.438Z,95.46
2017-09-10T02:58:08.550Z,95.31
2017-09-10T02:58:36.558Z,95.17
2017-09-10T02:59:04.483Z,95.26
2017-09-10T02:59:32.620Z,96.03
2017-09-10T03:00:00.840Z,95.94
2017-09-10T03:00:28.995Z,96.03
2017-09-10T03:00:57.040Z,95.84
2017-09-10T03:01:25.105Z,96.13
2017-09-10T03:01:53.243Z,96.03
2017-09-10T03:02:21.126Z,96.03
2017-09-10T03:02:49.273Z,95.94
2017-09-10T03:03:17.216Z,95.84
2017-09-10T03:03:45.345Z,95.84
2017-09-10T03:04:13.475Z,96.13
2017-09-10T03:04:42.263Z,95.36
2017-09-10T03:05:10.480Z,95.26
2017-09-10T03:05:38.494Z,95.46
2017-09-10T03:06:06.437Z,94.98
2017-09-10T03:06:34.568Z,95.07
2017-09-10T03:07:02.638Z,95.36
2017-09-10T03:07:30.812Z,95.56
2017-09-10T03:07:58.860Z,95.17
2017-09-10T03:08:26.837Z,95.17
2017-09-10T03:08:54.868Z,95.36
2017-09-10T03:09:22.820Z,95.46
2017-09-10T03:09:50.936Z,95.17
2017-09-10T03:10:19.127Z,95.36
2017-09-10T03:10:47.188Z,95.36
2017-09-10T03:11:15.275Z,95.56
2017-09-10T03:11:43.298Z,95.17
2017-09-10T03:12:11.278Z,95.56
2017-09-10T03:12:39.208Z,95.46
2017-09-10T03:13:07.229Z,95.46
2017-09-10T03:13:35.276Z,95.46
2017-09-10T03:14:03.310Z,95.46
2017-09-10T03:14:31.400Z,95.56
2017-09-10T03:14:59.566Z,95.36
2017-09-10T03:15:27.749Z,95.36
2017-09-10T03:15:55.839Z,95.07
2017-09-10T03:16:23.997Z,95.36
2017-09-10T03:16:52.033Z,95.46
2017-09-10T03:17:20.177Z,96.03
2017-09-10T03:17:48.131Z,95.84
2017-09-10T03:18:16.201Z,95.56
2017-09-10T03:20:23.962Z,95.89
2017-09-10T03:20:52.022Z,95.98
2017-09-10T03:21:20.147Z,95.7
2017-09-10T03:21:48.237Z,95.51
2017-09-10T03:22:16.456Z,95.6
2017-09-10T03:22:44.588Z,95.79
2017-09-10T03:23:12.791Z,95.6
2017-09-10T03:23:41.026Z,95.7
2017-09-10T03:24:09.026Z,95.51
2017-09-10T03:24:37.167Z,96.18
2017-09-10T03:25:05.387Z,96.47
2017-09-10T03:25:33.584Z,95.89
2017-09-10T03:26:01.481Z,95.89
2017-09-10T03:26:29.439Z,95.79
2017-09-10T03:26:57.686Z,96.18
2017-09-10T03:27:25.950Z,96.47
2017-09-10T03:27:54.212Z,96.66
2017-09-10T03:28:22.414Z,96.08
2017-09-10T03:28:50.547Z,96.18
2017-09-10T03:29:18.669Z,96.27
2017-09-10T03:29:46.898Z,96.37
2017-09-10T03:30:15.065Z,96.56
2017-09-10T03:30:43.344Z,97.04
2017-09-10T03:31:11.558Z,96.75
2017-09-10T03:31:39.826Z,96.66
2017-09-10T03:32:07.956Z,97.33
2017-09-10T03:32:36.082Z,97.23
2017-09-10T03:33:04.324Z,97.23
2017-09-10T03:33:32.267Z,97.33
2017-09-10T03:34:00.506Z,97.71
2017-09-10T03:34:28.455Z,97.8
2017-09-10T03:34:56.509Z,97.42
2017-09-10T03:35:24.648Z,97.8
2017-09-10T03:35:52.899Z,97.9
2017-09-10T03:36:21.134Z,97.52
2017-09-10T03:36:49.272Z,97.8
2017-09-10T03:37:17.456Z,97.71
2017-09-10T03:37:45.719Z,97.52
2017-09-10T03:38:13.958Z,98.19
2017-09-10T03:38:42.083Z,98.28
2017-09-10T03:39:10.348Z,98.1
2017-09-10T03:39:38.484Z,97.9
2017-09-10T03:40:06.725Z,98
2017-09-10T03:40:34.995Z,98.38
2017-09-10T03:41:03.269Z,98.57
2017-09-10T03:41:31.509Z,98.38
2017-09-10T03:41:59.419Z,98.47
2017-09-10T03:42:27.486Z,98.76
2017-09-10T03:42:55.627Z,98.38
2017-09-10T03:43:23.794Z,98.38
2017-09-10T03:43:51.814Z,98.38
2017-09-10T03:44:20.024Z,98.28
2017-09-10T03:44:48.138Z,98.67
2017-09-10T03:45:16.361Z,98.57
2017-09-10T03:45:44.569Z,98.67
2017-09-10T03:46:12.716Z,99.15
2017-09-10T03:46:40.805Z,99.05
2017-09-10T03:47:09.024Z,98.96
2017-09-10T03:47:37.260Z,99.05
2017-09-10T03:48:05.481Z,99.05
2017-09-10T03:48:33.601Z,98.96
2017-09-10T03:49:01.742Z,99.15
2017-09-10T03:49:29.818Z,99.34
2017-09-10T03:49:58.057Z,98.96
2017-09-10T03:50:26.181Z,98.86
2017-09-10T03:50:54.519Z,98.76
2017-09-10T03:51:22.731Z,98.57
2017-09-10T03:51:50.887Z,98.96
2017-09-10T03:52:19.004Z,98.43
2017-09-10T03:52:47.135Z,98.81
2017-09-10T03:53:15.362Z,98.91
2017-09-10T03:53:43.520Z,99
2017-09-10T03:54:11.767Z,99
2017-09-10T03:54:39.918Z,99
2017-09-10T03:55:08.137Z,98.91
2017-09-10T03:55:36.272Z,99
2017-09-10T03:56:04.601Z,99.38
2017-09-10T03:56:32.860Z,98.91
2017-09-10T03:57:01.145Z,99.1
2017-09-10T03:57:29.278Z,98.91
2017-09-10T03:57:57.523Z,98.52
2017-09-10T03:58:25.633Z,98.52
2017-09-10T03:58:53.798Z,98.52
2017-09-10T03:59:21.959Z,98.52
2017-09-10T03:59:49.972Z,98.52
2017-09-10T04:00:18.237Z,98.62
2017-09-10T04:00:46.480Z,99.1
2017-09-10T04:01:14.592Z,99
2017-09-10T04:01:42.745Z,98.81
2017-09-10T04:02:10.794Z,98.71
2017-09-10T04:02:38.912Z,98.86
2017-09-10T04:03:07.108Z,98.86
2017-09-10T04:03:35.334Z,98.91
2017-09-10T04:04:03.570Z,99.24
2017-09-10T04:04:31.588Z,99.43
2017-09-10T04:04:59.747Z,99.62
2017-09-10T04:05:27.978Z,99.62
2017-09-10T04:05:56.098Z,99.62
2017-09-10T04:06:24.425Z,99.96
2017-09-10T04:06:52.340Z,99.77
2017-09-10T04:07:20.593Z,99.77
2017-09-10T04:07:48.639Z,99.67
2017-09-10T04:08:16.626Z,99.99
2017-09-10T04:08:44.700Z,99.96
2017-09-10T04:09:12.636Z,99.67
2017-09-10T04:09:40.551Z,99.99
2017-09-10T04:10:08.776Z,99.96
2017-09-10T04:10:36.915Z,99.96
2017-09-10T04:11:05.236Z,99.77
2017-09-10T04:11:33.406Z,99.99
2017-09-10T04:12:01.667Z,99.99
2017-09-10T04:12:29.717Z,99.77
2017-09-10T04:12:57.842Z,99.87
2017-09-10T04:13:25.996Z,99.67
2017-09-10T04:13:54.129Z,99.67
2017-09-10T04:14:22.313Z,99.77
2017-09-10T04:14:50.496Z,99.58
2017-09-10T04:15:18.647Z,99.77
2017-09-10T04:15:46.853Z,99.87
2017-09-10T04:16:15.205Z,99.67
2017-09-10T04:16:43.234Z,99.38
2017-09-10T04:17:11.480Z,99.67
2017-09-10T04:17:39.651Z,99.29
2017-09-10T04:18:07.911Z,99.1
2017-09-10T04:18:36.049Z,99
2017-09-10T04:19:04.322Z,99.1
2017-09-10T04:19:32.471Z,98.91
2017-09-10T04:20:00.520Z,99.29
2017-09-10T04:20:28.638Z,99.1
2017-09-10T04:20:56.823Z,99.67
2017-09-10T04:21:25.033Z,99.62
2017-09-10T04:21:53.278Z,99.58
2017-09-10T04:22:21.389Z,99.67
2017-09-10T04:22:49.623Z,99.87
2017-09-10T04:23:17.751Z,99.77
2017-09-10T04:23:45.934Z,99.77
2017-09-10T04:24:14.185Z,99.87
2017-09-10T04:24:42.354Z,99.87
2017-09-10T04:25:10.628Z,99.96
2017-09-10T04:25:38.797Z,99.87
2017-09-10T04:26:07.011Z,99.96
2017-09-10T04:26:35.356Z,99.67
2017-09-10T04:27:03.510Z,99.87
2017-09-10T04:27:31.752Z,99.77
2017-09-10T04:27:59.965Z,99.99
2017-09-10T04:28:28.213Z,99.77
2017-09-10T04:28:56.321Z,99.96
2017-09-10T04:29:24.340Z,99.99
2017-09-10T04:29:52.455Z,99.96
2017-09-10T04:30:20.672Z,99.99
2017-09-10T04:30:48.828Z,99.99
2017-09-10T04:31:17.050Z,99.99
2017-09-10T04:31:45.399Z,99.99
2017-09-10T04:32:13.518Z,99.99
2017-09-10T04:32:41.717Z,99.99
2017-09-10T04:33:09.956Z,99.99
2017-09-10T04:33:38.089Z,99.99
2017-09-10T04:34:06.004Z,99.99
2017-09-10T04:34:34.096Z,99.99
2017-09-10T04:35:02.253Z,99.99
2017-09-10T04:35:30.412Z,99.99
2017-09-10T04:35:58.567Z,99.99
2017-09-10T04:36:26.920Z,99.99
2017-09-10T04:36:55.162Z,99.99
2017-09-10T04:37:23.418Z,99.99
2017-09-10T04:37:51.516Z,99.99
2017-09-10T04:38:19.746Z,99.99
2017-09-10T04:38:47.889Z,99.99
2017-09-10T04:39:16.005Z,99.99
2017-09-10T04:39:44.131Z,99.99
2017-09-10T04:40:12.324Z,99.99
2017-09-10T04:40:40.436Z,99.99
2017-09-10T04:41:08.684Z,99.99
2017-09-10T04:41:36.947Z,99.99
2017-09-10T04:42:05.159Z,99.99
2017-09-10T04:42:33.321Z,99.99
2017-09-10T04:43:01.528Z,99.99
2017-09-10T04:43:29.684Z,99.99
2017-09-10T04:43:57.853Z,99.99
2017-09-10T04:44:26.094Z,99.99
2017-09-10T04:44:54.233Z,99.99
2017-09-10T04:45:22.480Z,99.99
2017-09-10T04:45:50.642Z,99.99
2017-09-10T04:46:18.867Z,99.99
2017-09-10T04:46:47.129Z,99.99
2017-09-10T04:47:15.177Z,99.99
2017-09-10T04:47:43.411Z,99.99
2017-09-10T04:48:11.523Z,99.99
2017-09-10T04:48:39.730Z,99.99
2017-09-10T04:49:07.981Z,99.99
2017-09-10T04:49:36.106Z,99.99
2017-09-10T04:50:04.255Z,99.99
2017-09-10T04:50:32.353Z,99.99
2017-09-10T04:51:00.460Z,99.99
2017-09-10T04:51:28.586Z,99.99
2017-09-10T04:51:56.917Z,99.99
2017-09-10T04:52:25.114Z,99.99
2017-09-10T04:52:53.249Z,99.99
2017-09-10T04:53:21.410Z,99.99
2017-09-10T04:53:49.644Z,99.99
2017-09-10T04:54:17.892Z,99.99
2017-09-10T04:54:46.046Z,99.99
2017-09-10T04:55:14.300Z,99.99
2017-09-10T04:55:42.549Z,99.99
2017-09-10T04:56:10.677Z,99.99
2017-09-10T04:56:38.818Z,99.99
2017-09-10T04:57:06.903Z,99.99
2017-09-10T04:57:35.119Z,99.99
2017-09-10T04:58:03.248Z,99.99
2017-09-10T04:58:31.507Z,99.99
2017-09-10T04:58:59.642Z,99.99
2017-09-10T04:59:27.709Z,99.99
2017-09-10T04:59:55.927Z,99.99
2017-09-10T05:00:24.134Z,99.99
2017-09-10T05:00:52.394Z,99.99
2017-09-10T05:01:20.425Z,99.99
2017-09-10T05:01:48.550Z,99.99
2017-09-10T05:02:16.816Z,99.99
2017-09-10T05:02:45.088Z,99.99
2017-09-10T05:03:13.337Z,99.99
2017-09-10T05:03:41.438Z,99.99
2017-09-10T05:04:09.681Z,99.99
2017-09-10T05:04:37.809Z,99.99
2017-09-10T05:05:06.034Z,99.99
2017-09-10T05:05:34.282Z,99.99
2017-09-10T05:06:02.437Z,99.99
2017-09-10T05:06:30.612Z,99.99
2017-09-10T05:06:58.940Z,99.99
2017-09-10T05:07:27.229Z,99.99
2017-09-10T05:07:55.426Z,99.99
2017-09-10T05:08:23.665Z,99.99
2017-09-10T05:08:51.857Z,99.99
2017-09-10T05:09:19.980Z,99.99
2017-09-10T05:09:48.222Z,99.99
2017-09-10T05:10:16.359Z,99.99
2017-09-10T05:10:44.502Z,99.99
2017-09-10T05:11:12.642Z,99.99
2017-09-10T05:11:40.742Z,99.99
2017-09-10T05:12:09.034Z,99.99
2017-09-10T05:12:37.191Z,99.99
2017-09-10T05:13:05.392Z,99.99
2017-09-10T05:13:33.608Z,99.99
2017-09-10T05:14:01.720Z,99.99
2017-09-10T05:14:29.859Z,99.99
2017-09-10T05:14:57.904Z,99.99
2017-09-10T05:15:26.013Z,99.99
2017-09-10T05:15:54.270Z,99.99
2017-09-10T05:16:22.506Z,99.99
2017-09-10T05:16:50.645Z,99.99
2017-09-10T05:17:18.801Z,99.99
2017-09-10T05:17:46.916Z,99.99
2017-09-10T05:18:15.030Z,99.99
2017-09-10T05:18:43.269Z,99.99
2017-09-10T05:19:11.509Z,99.99
2017-09-10T05:19:39.576Z,99.99
2017-09-10T05:20:07.784Z,99.99
2017-09-10T05:20:35.937Z,99.99
2017-09-10T05:21:04.042Z,99.99
2017-09-10T05:21:32.166Z,99.99
2017-09-10T05:22:00.319Z,99.99
2017-09-10T05:22:28.661Z,99.99
2017-09-10T05:22:56.868Z,99.99
2017-09-10T05:23:24.917Z,99.99
2017-09-10T05:23:53.059Z,99.99
2017-09-10T05:24:21.257Z,99.99
2017-09-10T05:24:49.383Z,99.99
2017-09-10T05:25:17.629Z,99.99
2017-09-10T05:25:45.739Z,99.99
2017-09-10T05:26:13.999Z,99.99
2017-09-10T05:26:42.221Z,99.99
2017-09-10T05:27:10.482Z,99.99
2017-09-10T05:27:38.723Z,99.99
2017-09-10T05:28:06.925Z,99.99
2017-09-10T05:28:34.985Z,99.99
2017-09-10T05:29:03.182Z,99.99
2017-09-10T05:29:31.395Z,99.99
2017-09-10T05:29:59.415Z,99.99
2017-09-10T05:30:27.572Z,99.99
2017-09-10T05:30:55.705Z,99.99
2017-09-10T05:31:23.998Z,99.99
2017-09-10T05:31:52.021Z,99.99
2017-09-10T05:32:20.039Z,99.99
2017-09-10T05:32:48.187Z,99.99
2017-09-10T05:33:16.210Z,99.99
2017-09-10T05:33:44.330Z,99.99
2017-09-10T05:34:12.519Z,99.99
2017-09-10T05:34:40.629Z,99.99
2017-09-10T05:35:08.771Z,99.99
2017-09-10T05:35:36.921Z,99.99
2017-09-10T05:36:04.960Z,99.99
2017-09-10T05:36:33.162Z,99.99
2017-09-10T05:37:01.389Z,99.99
2017-09-10T05:37:29.568Z,99.99
2017-09-10T05:37:57.687Z,99.99
2017-09-10T05:38:25.933Z,99.99
2017-09-10T05:38:54.097Z,99.99
2017-09-10T05:39:22.194Z,99.99
2017-09-10T05:39:50.436Z,99.99
2017-09-10T05:40:18.543Z,99.99
2017-09-10T05:40:46.576Z,99.99
2017-09-10T05:41:14.689Z,99.99
2017-09-10T05:41:42.865Z,99.99
2017-09-10T05:42:11.017Z,99.99
2017-09-10T05:42:39.266Z,99.99
2017-09-10T05:43:07.499Z,99.99
2017-09-10T05:43:35.736Z,99.99
2017-09-10T05:44:04.014Z,99.99
2017-09-10T05:44:32.187Z,99.99
2017-09-10T05:45:00.460Z,99.99
2017-09-10T05:45:28.606Z,99.99
2017-09-10T05:45:56.759Z,99.99
2017-09-10T05:46:24.882Z,99.99
2017-09-10T05:46:53.054Z,99.99
2017-09-10T05:47:21.201Z,99.99
2017-09-10T05:47:49.556Z,99.99
2017-09-10T05:48:17.766Z,99.99
2017-09-10T05:48:46.017Z,99.99
2017-09-10T05:49:14.131Z,99.99
2017-09-10T05:49:42.257Z,99.99
2017-09-10T05:50:10.294Z,99.99
2017-09-10T05:50:38.534Z,99.99
2017-09-10T05:51:06.738Z,99.99
2017-09-10T05:51:34.854Z,99.99
2017-09-10T05:52:02.797Z,99.99
2017-09-10T05:52:31.037Z,99.99
2017-09-10T05:52:59.170Z,99.99
2017-09-10T05:53:27.460Z,99.99
2017-09-10T05:53:55.702Z,99.99
2017-09-10T05:54:23.825Z,99.99
2017-09-10T05:54:52.084Z,99.99
2017-09-10T05:55:20.308Z,99.99
2017-09-10T05:55:48.246Z,99.99
2017-09-10T05:56:16.451Z,99.99
2017-09-10T05:56:44.485Z,99.99
2017-09-10T05:57:12.697Z,99.99
2017-09-10T05:57:40.930Z,99.99
2017-09-10T05:58:08.920Z,99.99
2017-09-10T05:58:37.078Z,99.99
2017-09-10T05:59:05.286Z,99.99
2017-09-10T05:59:33.522Z,99.99
2017-09-10T06:00:01.652Z,99.99
2017-09-10T06:00:29.892Z,99.99
2017-09-10T06:00:58.168Z,99.99
2017-09-10T06:01:26.351Z,99.99
2017-09-10T06:01:54.596Z,99.99
2017-09-10T06:02:22.671Z,99.99
2017-09-10T06:02:50.992Z,99.99
2017-09-10T06:03:19.235Z,99.99
2017-09-10T06:03:47.378Z,99.99
2017-09-10T06:04:15.520Z,99.99
2017-09-10T06:04:43.761Z,99.99
2017-09-10T06:05:11.911Z,99.99